createdAt,value
2023-11-04T00:03:45.967Z,9.25
2023-11-04T00:10:28.380Z,9.22
2023-11-04T00:17:10.660Z,9.21
2023-11-04T00:23:52.837Z,9.21
2023-11-04T00:30:35.079Z,9.21
2023-11-04T00:37:38.341Z,9.23
2023-11-04T00:44:40.805Z,9.26
2023-11-04T00:51:43.368Z,9.25
2023-11-04T00:58:45.668Z,9.24
2023-11-04T01:05:48.818Z,9.24
2023-11-04T01:12:50.984Z,9.21
2023-11-04T01:19:53.262Z,9.19
2023-11-04T01:26:55.530Z,9.15
2023-11-04T01:33:57.914Z,9.13
2023-11-04T01:41:00.137Z,9.11
2023-11-04T01:48:02.484Z,9.10
2023-11-04T01:55:07.729Z,8.98
2023-11-04T02:02:12.433Z,8.83
2023-11-04T02:09:14.492Z,8.73
2023-11-04T02:16:17.044Z,8.61
2023-11-04T02:23:19.492Z,8.48
2023-11-04T02:30:21.600Z,8.34
2023-11-04T02:37:23.725Z,8.21
2023-11-04T02:44:25.929Z,8.09
2023-11-04T02:51:28.101Z,7.96
2023-11-04T02:58:30.200Z,7.82
2023-11-04T03:05:37.324Z,7.68
2023-11-04T03:12:40.173Z,7.53
2023-11-04T03:19:47.483Z,7.41
2023-11-04T03:26:50.391Z,7.31
2023-11-04T03:33:52.671Z,7.27
2023-11-04T03:40:54.938Z,7.23
2023-11-04T03:47:59.037Z,7.22
2023-11-04T03:55:01.394Z,7.20
2023-11-04T04:02:03.542Z,7.22
2023-11-04T04:09:06.983Z,7.22
2023-11-04T04:16:12.828Z,7.23
2023-11-04T04:23:15.003Z,7.24
2023-11-04T04:30:17.547Z,7.25
2023-11-04T04:37:19.911Z,7.26
2023-11-04T04:44:22.046Z,7.28
2023-11-04T04:51:24.439Z,7.31
2023-11-04T04:58:26.516Z,7.34
2023-11-04T05:05:28.815Z,7.38
2023-11-04T05:12:30.940Z,7.43
2023-11-04T05:19:33.162Z,7.48
2023-11-04T05:26:41.392Z,7.54
2023-11-04T05:33:43.607Z,7.61
2023-11-04T05:40:46.291Z,7.64
2023-11-04T05:47:48.524Z,7.68
2023-11-04T05:54:50.710Z,7.71
2023-11-04T06:01:52.895Z,7.72
2023-11-04T06:08:55.141Z,7.71
2023-11-04T06:16:00.860Z,7.72
2023-11-04T06:23:03.106Z,7.74
2023-11-04T06:30:06.595Z,7.76
2023-11-04T06:37:08.725Z,7.78
2023-11-04T06:44:11.565Z,7.81
2023-11-04T06:51:19.751Z,7.85
2023-11-04T06:58:02.154Z,7.88
2023-11-04T07:04:44.399Z,7.88
2023-11-04T07:11:26.602Z,7.90
2023-11-04T07:18:08.957Z,7.92
2023-11-04T07:24:51.302Z,7.93
2023-11-04T07:31:36.685Z,7.95
2023-11-04T07:38:18.954Z,7.98
2023-11-04T07:45:01.545Z,8.01
2023-11-04T07:51:44.408Z,8.05
2023-11-04T07:58:26.943Z,8.08
2023-11-04T08:05:11.237Z,8.08
2023-11-04T08:11:53.543Z,8.06
2023-11-04T08:18:36.983Z,8.08
2023-11-04T08:25:19.456Z,8.07
2023-11-04T08:32:01.841Z,8.08
2023-11-04T08:38:44.435Z,8.08
2023-11-04T08:45:26.678Z,8.10
2023-11-04T08:52:08.893Z,8.14
2023-11-04T08:58:51.183Z,8.20
2023-11-04T09:05:34.720Z,8.25
2023-11-04T09:12:21.088Z,8.34
2023-11-04T09:19:05.340Z,8.43
2023-11-04T09:25:51.951Z,8.54
2023-11-04T09:32:34.259Z,8.63
2023-11-04T09:39:17.439Z,8.71
2023-11-04T09:46:02.858Z,8.78
2023-11-04T09:52:51.618Z,8.84
2023-11-04T09:59:35.498Z,8.83
2023-11-04T10:06:18.951Z,8.81
2023-11-04T10:13:01.365Z,8.77
2023-11-04T10:19:44.655Z,8.78
2023-11-04T10:26:29.207Z,8.84
2023-11-04T10:33:14.500Z,8.86
2023-11-04T10:39:57.672Z,8.85
2023-11-04T10:47:27.398Z,8.85
2023-11-04T10:54:24.100Z,8.84
2023-11-04T11:01:08.017Z,8.82
2023-11-04T11:07:51.118Z,8.78
2023-11-04T11:14:35.549Z,8.75
2023-11-04T11:21:21.980Z,8.76
2023-11-04T11:28:27.354Z,8.83
2023-11-04T11:35:09.746Z,8.90
2023-11-04T11:41:52.384Z,8.98
2023-11-04T11:48:42.846Z,9.03
2023-11-04T11:55:27.359Z,9.07
2023-11-04T12:02:12.472Z,9.13
2023-11-04T12:08:57.304Z,9.21
2023-11-04T12:15:39.533Z,9.29
2023-11-04T12:22:27.083Z,9.36
2023-11-04T12:29:10.896Z,9.44
2023-11-04T12:36:13.230Z,9.44
2023-11-04T12:42:59.375Z,9.49
2023-11-04T12:49:42.548Z,9.53
2023-11-04T12:56:24.979Z,9.57
2023-11-04T13:03:07.775Z,9.67
2023-11-04T13:09:50.484Z,9.77
2023-11-04T13:16:34.802Z,9.86
2023-11-04T13:23:19.462Z,9.82
2023-11-04T13:30:02.239Z,9.81
2023-11-04T13:36:47.745Z,9.78
2023-11-04T13:43:29.954Z,9.72
2023-11-04T13:50:12.226Z,9.65
2023-11-04T13:56:55.407Z,9.63
2023-11-04T14:03:37.758Z,9.53
2023-11-04T14:10:20.221Z,9.44
2023-11-04T14:17:02.518Z,9.41
2023-11-04T14:23:45.193Z,9.35
2023-11-04T14:30:27.443Z,9.29
2023-11-04T14:37:11.621Z,9.20
2023-11-04T14:43:54.089Z,9.09
2023-11-04T14:50:41.575Z,8.98
2023-11-04T14:57:24.462Z,8.86
2023-11-04T15:04:07.246Z,8.75
2023-11-04T15:10:49.609Z,8.62
2023-11-04T15:17:32.308Z,8.51
2023-11-04T15:24:15.279Z,8.37
2023-11-04T15:30:57.915Z,8.27
2023-11-04T15:37:40.411Z,8.16
2023-11-04T15:44:22.764Z,8.07
2023-11-04T15:51:05.847Z,7.95
2023-11-04T15:57:48.319Z,7.87
2023-11-04T16:04:30.881Z,7.76
2023-11-04T16:11:13.210Z,7.68
2023-11-04T16:17:56.463Z,7.60
2023-11-04T16:24:39.282Z,7.52
2023-11-04T16:31:25.476Z,7.43
2023-11-04T16:38:09.394Z,7.36
2023-11-04T16:44:51.645Z,7.31
2023-11-04T16:51:34.446Z,7.26
2023-11-04T16:58:16.684Z,7.20
2023-11-04T17:04:59.170Z,7.12
2023-11-04T17:11:44.433Z,7.04
2023-11-04T17:18:26.737Z,6.98
2023-11-04T17:25:09.760Z,6.94
2023-11-04T17:31:52.506Z,6.88
2023-11-04T17:38:35.077Z,6.83
2023-11-04T17:45:19.158Z,6.82
2023-11-04T17:52:01.428Z,6.77
2023-11-04T17:58:43.843Z,6.73
2023-11-04T18:05:26.113Z,6.70
2023-11-04T18:12:08.517Z,6.69
2023-11-04T18:18:51.080Z,6.67
2023-11-04T18:25:33.746Z,6.62
2023-11-04T18:32:16.037Z,6.61
2023-11-04T18:38:59.521Z,6.57
2023-11-04T18:45:47.565Z,6.53
2023-11-04T18:52:33.114Z,6.50
2023-11-04T18:59:15.716Z,6.48
2023-11-04T19:05:58.237Z,6.45
2023-11-04T19:12:41.351Z,6.43
2023-11-04T19:19:25.282Z,6.40
2023-11-04T19:26:08.912Z,6.36
2023-11-04T19:32:51.322Z,6.30
2023-11-04T19:39:33.525Z,6.24
2023-11-04T19:46:16.125Z,6.19
2023-11-04T19:52:58.337Z,6.13
2023-11-04T19:59:40.746Z,6.09
2023-11-04T20:06:23.148Z,6.06
2023-11-04T20:13:05.834Z,5.99
2023-11-04T20:19:48.527Z,5.94
2023-11-04T20:26:30.932Z,5.91
2023-11-04T20:33:13.246Z,5.89
2023-11-04T20:39:55.472Z,5.85
2023-11-04T20:46:38.940Z,5.85
2023-11-04T20:53:21.225Z,5.86
2023-11-04T21:00:03.741Z,5.86
2023-11-04T21:06:48.593Z,5.84
2023-11-04T21:13:37.225Z,5.84
2023-11-04T21:20:21.029Z,5.84
2023-11-04T21:27:04.040Z,5.84
2023-11-04T21:33:46.350Z,5.82
2023-11-04T21:40:28.620Z,5.83
2023-11-04T21:47:10.896Z,5.83
2023-11-04T21:53:53.274Z,5.80
2023-11-04T22:00:35.493Z,5.77
2023-11-04T22:07:17.797Z,5.76
2023-11-04T22:14:00.159Z,5.72
2023-11-04T22:20:42.470Z,5.70
2023-11-04T22:27:24.964Z,5.64
2023-11-04T22:34:07.560Z,5.57
2023-11-04T22:40:49.809Z,5.52
2023-11-04T22:47:32.312Z,5.48
2023-11-04T22:54:15.003Z,5.40
2023-11-04T23:00:58.335Z,5.35
2023-11-04T23:07:40.584Z,5.31
2023-11-04T23:14:22.775Z,5.26
2023-11-04T23:21:05.662Z,5.21
2023-11-04T23:27:48.315Z,5.22
2023-11-04T23:34:30.591Z,5.18
2023-11-04T23:41:12.993Z,5.15
2023-11-04T23:47:55.629Z,5.12
2023-11-04T23:54:37.870Z,5.06
